Aviation Digital Data Service (ADDS)

Output produced by METARs form (1141 UTC 22 January 2022)
found at http://aviationweather.gov/metar/data/
 
METAR text: KLOT 221110Z AUTO 23010G16KT 10SM -SN SCT039 OVC050 M07/M11 A3027 RMK AO2 T10721108
Conditions at: KLOT (ROMEOVILLE/CHI , IL, US) observed 1110 UTC 22 January 2022
Temperature: -7.2°C (19°F)
Dewpoint: -10.8°C (13°F) [RH = 75%]
Pressure (altimeter): 30.27 inches Hg (1025.1 mb)
Winds: from the SW (230 degrees) at 12 MPH (10 knots; 5.1 m/s)
gusting to 18 MPH (16 knots; 8.2 m/s)
Visibility: 10 or more miles (16+ km)
Ceiling: 5000 feet AGL
Clouds: scattered clouds at 3900 feet AGL
overcast cloud deck at 5000 feet AGL
Weather: -SN  (light snow)

METAR text: KLOT 221050Z AUTO 23012KT 10SM SCT050 OVC065 M07/M11 A3027 RMK AO2 T10731110
Conditions at: KLOT (ROMEOVILLE/CHI , IL, US) observed 1050 UTC 22 January 2022
Temperature: -7.3°C (19°F)
Dewpoint: -11.0°C (12°F) [RH = 75%]
Pressure (altimeter): 30.27 inches Hg (1025.1 mb)
Winds: from the SW (230 degrees) at 14 MPH (12 knots; 6.2 m/s)
Visibility: 10 or more miles (16+ km)
Ceiling: 6500 feet AGL
Clouds: scattered clouds at 5000 feet AGL
overcast cloud deck at 6500 feet AGL
Weather: automated observation with no human augmentation;
there may or may not be significant weather present at this time

METAR text: KLOT 221030Z AUTO 22014G21KT 10SM BKN075 OVC090 M07/M11 A3028 RMK AO2 T10751111
Conditions at: KLOT (ROMEOVILLE/CHI , IL, US) observed 1030 UTC 22 January 2022
Temperature: -7.5°C (18°F)
Dewpoint: -11.1°C (12°F) [RH = 75%]
Pressure (altimeter): 30.28 inches Hg (1025.5 mb)
Winds: from the SW (220 degrees) at 16 MPH (14 knots; 7.2 m/s)
gusting to 24 MPH (21 knots; 10.8 m/s)
Visibility: 10 or more miles (16+ km)
Ceiling: 7500 feet AGL
Clouds: broken clouds at 7500 feet AGL
overcast cloud deck at 9000 feet AGL
Weather: automated observation with no human augmentation;
there may or may not be significant weather present at this time

METAR text: KLOT 221010Z AUTO 22013G20KT 10SM BKN100 OVC110 M07/M11 A3029 RMK AO2 T10751111
Conditions at: KLOT (ROMEOVILLE/CHI , IL, US) observed 1010 UTC 22 January 2022
Temperature: -7.5°C (18°F)
Dewpoint: -11.1°C (12°F) [RH = 75%]
Pressure (altimeter): 30.29 inches Hg (1025.8 mb)
Winds: from the SW (220 degrees) at 15 MPH (13 knots; 6.7 m/s)
gusting to 23 MPH (20 knots; 10.3 m/s)
Visibility: 10 or more miles (16+ km)
Ceiling: 10000 feet AGL
Clouds: broken clouds at 10000 feet AGL
overcast cloud deck at 11000 feet AGL
Weather: automated observation with no human augmentation;
there may or may not be significant weather present at this time

METAR text: KLOT 220950Z AUTO 22011KT 10SM BKN110 M08/M11 A3030 RMK AO2 T10771112
Conditions at: KLOT (ROMEOVILLE/CHI , IL, US) observed 0950 UTC 22 January 2022
Temperature: -7.7°C (18°F)
Dewpoint: -11.2°C (12°F) [RH = 76%]
Pressure (altimeter): 30.30 inches Hg (1026.2 mb)
Winds: from the SW (220 degrees) at 13 MPH (11 knots; 5.7 m/s)
Visibility: 10 or more miles (16+ km)
Ceiling: 11000 feet AGL
Clouds: broken clouds at 11000 feet AGL
Weather: automated observation with no human augmentation;
there may or may not be significant weather present at this time